createdAt,value
2023-04-12T00:04:34.416Z,71.7
2023-04-12T00:19:53.519Z,72.1
2023-04-12T00:24:59.877Z,73.1
2023-04-12T00:30:30.305Z,72.6
2023-04-12T00:35:36.813Z,72.6
2023-04-12T00:50:33.962Z,72.6
2023-04-12T01:05:53.130Z,73.9
2023-04-12T01:10:59.529Z,74.2
2023-04-12T01:21:12.472Z,74.6
2023-04-12T01:26:19.115Z,74.4
2023-04-12T01:36:31.809Z,73.5
2023-04-12T01:41:38.201Z,74.6
2023-04-12T01:46:44.568Z,74.5
2023-04-12T01:52:14.994Z,74.7
2023-04-12T01:57:01.005Z,73.8
2023-04-12T02:02:11.466Z,74.6
2023-04-12T02:07:37.788Z,74.7
2023-04-12T02:12:20.180Z,74.7
2023-04-12T02:17:26.619Z,74.4
2023-04-12T02:23:10.057Z,75.0
2023-04-12T02:32:35.861Z,76.0
2023-04-12T02:38:16.287Z,75.5
2023-04-12T02:43:18.688Z,77.1
2023-04-12T02:49:01.124Z,76.1
2023-04-12T02:54:07.567Z,76.3
2023-04-12T03:03:25.102Z,77.7
2023-04-12T03:08:32.227Z,76.5
2023-04-12T03:13:28.584Z,77.8
2023-04-12T03:18:45.006Z,77.1
2023-04-12T03:25:23.554Z,77.1
2023-04-12T03:34:48.379Z,77.7
2023-04-12T03:39:00.581Z,78.6
2023-04-12T03:44:16.974Z,78.3
2023-04-12T03:49:43.377Z,77.6
2023-04-12T03:54:29.748Z,78.1
2023-04-12T03:59:36.094Z,78.5
2023-04-12T04:04:32.565Z,78.7
2023-04-12T04:10:13.083Z,79.0
2023-04-12T04:14:55.393Z,79.3
2023-04-12T04:20:01.806Z,79.5
2023-04-12T04:25:32.310Z,79.1
2023-04-12T04:30:14.550Z,80.6
2023-04-12T04:35:20.946Z,80.9
2023-04-12T04:40:27.281Z,80.1
2023-04-12T04:45:57.763Z,80.3
2023-04-12T04:51:00.095Z,80.8
2023-04-12T04:55:46.440Z,80.1
2023-04-12T05:00:52.830Z,80.1
2023-04-12T05:06:23.378Z,80.3
2023-04-12T05:11:05.644Z,81.4
2023-04-12T05:16:32.212Z,81.8
2023-04-12T05:21:18.521Z,84.1
2023-04-12T05:26:44.947Z,82.6
2023-04-12T05:32:51.447Z,83.1
2023-04-12T05:36:37.673Z,82.3
2023-04-12T05:43:00.434Z,82.0
2023-04-12T05:47:06.610Z,83.6
2023-04-12T05:51:59.034Z,83.9
2023-04-12T05:57:45.457Z,84.5
2023-04-12T06:02:55.907Z,82.7
2023-04-12T06:08:02.224Z,83.1
2023-04-12T06:12:48.598Z,83.1
2023-04-12T06:17:30.932Z,83.8
2023-04-12T06:22:37.413Z,84.4
2023-04-12T06:27:44.787Z,83.6
2023-04-12T06:33:11.320Z,84.0
2023-04-12T06:37:57.722Z,84.7
2023-04-12T06:43:24.106Z,85.3
2023-04-12T06:58:43.224Z,86.8
2023-04-12T07:03:19.653Z,87.6
2023-04-12T07:08:28.676Z,88.4
2023-04-12T07:14:06.869Z,89.2
2023-04-12T07:18:49.028Z,89.3
2023-04-12T07:23:55.538Z,88.2
2023-04-12T07:29:01.924Z,89.1
2023-04-12T07:34:08.402Z,89.8
2023-04-12T07:44:21.192Z,90.4
2023-04-12T07:49:27.573Z,90.5
2023-04-12T07:54:34.070Z,91.0
2023-04-12T07:59:43.373Z,90.8
2023-04-12T08:05:13.886Z,91.2
2023-04-12T08:09:56.234Z,91.3
2023-04-12T08:14:52.525Z,91.7
2023-04-12T08:20:08.953Z,92.0
2023-04-12T08:25:15.356Z,91.7
2023-04-12T08:30:21.770Z,92.1
2023-04-12T08:35:48.190Z,92.0
2023-04-12T08:40:34.515Z,92.3
2023-04-12T08:45:40.964Z,92.3
2023-04-12T08:50:50.813Z,92.4
2023-04-12T08:55:57.364Z,93.1
2023-04-12T09:01:28.933Z,92.6
2023-04-12T09:06:11.248Z,92.8
2023-04-12T09:11:17.795Z,93.2
2023-04-12T09:16:24.068Z,93.2
2023-04-12T09:21:30.413Z,93.1
2023-04-12T09:27:21.041Z,93.6
2023-04-12T09:36:39.652Z,93.6
2023-04-12T09:42:32.401Z,93.7
2023-04-12T09:47:02.411Z,93.9
2023-04-12T09:52:12.320Z,94.6
2023-04-12T09:57:38.735Z,94.7
2023-04-12T10:02:25.372Z,94.8
2023-04-12T10:07:31.517Z,94.8
2023-04-12T10:12:37.890Z,95.2
2023-04-12T10:18:28.441Z,95.1
2023-04-12T10:22:50.688Z,95.0
2023-04-12T10:27:57.072Z,95.4
2023-04-12T10:33:03.885Z,96.1
2023-04-12T10:38:10.312Z,96.2
2023-04-12T10:43:16.686Z,96.8
2023-04-12T10:53:19.757Z,97.2
2023-04-12T11:03:42.742Z,96.5
2023-04-12T11:08:50.169Z,96.3
2023-04-12T11:24:09.436Z,96.3
2023-04-12T11:29:14.675Z,96.7
2023-04-12T11:34:15.406Z,97.0
2023-04-12T11:45:02.383Z,96.8
2023-04-12T11:54:47.617Z,96.6
2023-04-12T11:59:53.975Z,96.6
2023-04-12T12:05:00.506Z,96.3
2023-04-12T12:10:06.784Z,96.4
2023-04-12T12:15:13.259Z,96.3
2023-04-12T12:20:19.656Z,96.2
2023-04-12T12:25:26.059Z,96.1
2023-04-12T12:30:32.410Z,95.9
2023-04-12T12:35:38.841Z,95.5
2023-04-12T12:40:45.229Z,95.5
2023-04-12T12:45:52.791Z,95.2
2023-04-12T12:51:02.729Z,95.4
2023-04-12T13:01:15.505Z,94.8
2023-04-12T13:06:21.896Z,94.8
2023-04-12T13:16:34.665Z,93.1
2023-04-12T13:22:01.089Z,92.9
2023-04-12T13:26:47.560Z,93.0
2023-04-12T13:31:54.024Z,92.9
2023-04-12T13:37:00.314Z,92.5
2023-04-12T13:42:45.353Z,92.1
2023-04-12T13:47:13.632Z,91.6
2023-04-12T13:52:20.116Z,91.3
2023-04-12T13:57:28.607Z,91.0
2023-04-12T14:03:19.110Z,91.0
2023-04-12T14:12:47.771Z,90.3
2023-04-12T14:17:54.241Z,90.2
2023-04-12T14:23:00.598Z,90.0
2023-04-12T14:28:07.015Z,89.4
2023-04-12T14:33:14.564Z,89.1
2023-04-12T14:43:27.296Z,88.6
2023-04-12T14:48:33.674Z,88.8
2023-04-12T14:53:40.075Z,88.9
2023-04-12T14:58:46.586Z,88.8
2023-04-12T15:03:53.407Z,89.0
2023-04-12T15:08:59.592Z,88.9
2023-04-12T15:19:19.172Z,89.2
2023-04-12T15:24:18.613Z,88.8
2023-04-12T15:29:24.961Z,89.0
2023-04-12T15:34:31.339Z,88.8
2023-04-12T15:39:37.869Z,89.2
2023-04-12T15:50:14.670Z,89.6
2023-04-12T15:54:46.990Z,89.7
2023-04-12T16:00:03.481Z,89.9
2023-04-12T16:05:09.988Z,90.0
2023-04-12T16:10:06.481Z,90.1
2023-04-12T16:25:35.636Z,90.1
2023-04-12T16:30:42.036Z,90.3
2023-04-12T16:35:48.397Z,90.1
2023-04-12T16:40:54.997Z,90.0
2023-04-12T16:56:38.231Z,90.1
2023-04-12T17:01:20.520Z,90.1
2023-04-12T17:06:26.913Z,90.2
2023-04-12T17:11:33.400Z,90.2
2023-04-12T17:16:42.073Z,90.5
2023-04-12T17:21:48.317Z,90.4
2023-04-12T17:32:35.246Z,90.8
2023-04-12T17:38:02.574Z,90.6
2023-04-12T17:42:48.961Z,90.5
2023-04-12T17:48:33.448Z,90.5
2023-04-12T17:53:01.849Z,90.8
2023-04-12T17:58:08.229Z,90.9
2023-04-12T18:09:05.234Z,90.5
2023-04-12T18:13:27.515Z,90.3
2023-04-12T18:18:33.971Z,90.1
2023-04-12T18:24:00.515Z,89.8
2023-04-12T18:38:49.617Z,89.9
2023-04-12T18:44:26.073Z,89.8
2023-04-12T18:49:16.408Z,89.6
2023-04-12T18:59:25.239Z,89.8
2023-04-12T19:04:31.604Z,89.6
2023-04-12T19:09:37.960Z,89.7
2023-04-12T19:15:04.362Z,89.8
2023-04-12T19:24:57.073Z,89.9
2023-04-12T19:30:05.739Z,89.9
2023-04-12T19:40:42.518Z,89.8
2023-04-12T19:46:09.017Z,89.8
2023-04-12T19:50:55.316Z,89.9
2023-04-12T19:55:57.654Z,89.8
2023-04-12T20:00:43.994Z,90.1
2023-04-12T20:05:50.530Z,89.6
2023-04-12T20:10:57.038Z,89.6
2023-04-12T20:16:41.482Z,89.6
2023-04-12T20:21:09.752Z,89.7
2023-04-12T20:26:16.173Z,89.4
2023-04-12T20:31:21.579Z,89.4
2023-04-12T20:36:28.888Z,89.3
2023-04-12T20:41:25.346Z,89.3
2023-04-12T20:46:41.810Z,89.3
2023-04-12T20:51:48.142Z,89.2
2023-04-12T20:56:44.528Z,89.2
2023-04-12T21:02:01.005Z,89.2
2023-04-12T21:07:07.304Z,89.3
2023-04-12T21:13:09.971Z,89.3
2023-04-12T21:22:16.574Z,89.5
2023-04-12T21:27:32.982Z,89.5
2023-04-12T21:33:03.472Z,89.4
2023-04-12T21:37:45.748Z,89.2
2023-04-12T21:43:36.344Z,89.2
2023-04-12T21:54:11.835Z,89.2
2023-04-12T21:58:14.104Z,89.2
2023-04-12T22:04:25.646Z,89.7
2023-04-12T22:08:27.881Z,89.8
2023-04-12T22:15:02.018Z,90.1
2023-04-12T22:19:04.296Z,90.2
2023-04-12T22:23:50.838Z,90.2
2023-04-12T22:29:21.240Z,90.2
2023-04-12T22:39:09.964Z,90.2
2023-04-12T22:44:40.512Z,90.4
2023-04-12T22:49:23.017Z,90.5
2023-04-12T22:54:49.499Z,90.8
2023-04-12T22:59:35.786Z,90.8
2023-04-12T23:04:42.193Z,91.0
2023-04-12T23:09:48.578Z,91.0
2023-04-12T23:40:26.897Z,92.1
2023-04-12T23:45:57.383Z,92.2
2023-04-12T23:56:12.239Z,92.6
